Time;durP1;ratioP1;P1;durP2;ratioP2;P2;SDS_P1;SDS_P2;PMS_P1;PMS_P2;Temp;Humidity;BMP_temperature;BMP_pressure;BME280_temperature;BME280_humidity;BME280_pressure;Samples;Min_cycle;Max_cycle;Signal;HPM_P1;HPM_P2
2021/03/30 00:02:10;;;;;;;18.87;11.27;;;12.50;90.30;;;;;;4939450;29;20584;-83
2021/03/30 00:04:55;;;;;;;22.27;12.23;;;12.50;90.60;;;;;;4931935;29;20271;-82
2021/03/30 00:07:40;;;;;;;20.50;11.87;;;12.40;90.30;;;;;;4928301;29;20639;-83
2021/03/30 00:10:34;;;;;;;22.47;12.13;;;12.30;90.40;;;;;;4938350;29;20207;-82
2021/03/30 00:13:19;;;;;;;21.30;11.13;;;12.30;91.00;;;;;;4936948;29;20215;-82
2021/03/30 00:16:05;;;;;;;21.43;10.90;;;12.30;91.10;;;;;;4937841;29;20216;-82
2021/03/30 00:18:50;;;;;;;19.13;10.57;;;12.20;91.50;;;;;;4940531;29;20235;-82
2021/03/30 00:21:34;;;;;;;19.03;11.83;;;12.20;91.50;;;;;;4934233;29;20304;-82
2021/03/30 00:24:19;;;;;;;21.97;12.17;;;12.20;91.70;;;;;;4934236;29;20220;-81
2021/03/30 00:27:06;;;;;;;22.17;11.70;;;12.10;92.10;;;;;;4941122;29;20226;-81
2021/03/30 00:29:51;;;;;;;26.80;12.23;;;12.10;92.20;;;;;;4940427;29;20210;-81
2021/03/30 00:32:36;;;;;;;23.23;11.80;;;12.00;92.20;;;;;;4939683;29;20246;-81
2021/03/30 00:35:21;;;;;;;27.43;11.60;;;12.00;92.30;;;;;;4940922;29;20576;-81
2021/03/30 00:38:09;;;;;;;21.83;11.73;;;11.90;92.90;;;;;;4931690;29;20227;-82
2021/03/30 00:40:54;;;;;;;26.37;12.37;;;11.90;92.90;;;;;;4938404;29;20231;-82
2021/03/30 00:43:40;;;;;;;22.13;11.67;;;11.90;93.20;;;;;;4942475;29;20219;-82
2021/03/30 00:46:26;;;;;;;21.83;11.73;;;11.80;93.40;;;;;;4943121;29;20263;-82
2021/03/30 00:49:14;;;;;;;22.87;12.20;;;11.80;93.70;;;;;;4928048;29;20291;-82
2021/03/30 00:52:00;;;;;;;21.10;11.63;;;11.70;93.70;;;;;;4936186;29;20238;-83
2021/03/30 00:54:45;;;;;;;20.47;11.47;;;11.70;93.70;;;;;;4934951;29;20509;-83
2021/03/30 00:57:30;;;;;;;23.53;12.10;;;11.60;93.90;;;;;;4925394;29;20315;-82
2021/03/30 01:00:17;;;;;;;21.13;11.80;;;11.60;94.20;;;;;;4930263;29;20206;-82
2021/03/30 01:03:02;;;;;;;22.03;11.23;;;11.50;94.50;;;;;;4936321;29;20235;-81
2021/03/30 01:05:47;;;;;;;19.20;11.80;;;11.50;94.90;;;;;;4937643;29;20336;-83
2021/03/30 01:08:48;;;;;;;23.30;12.60;;;11.40;95.20;;;;;;4942923;29;20255;-81
2021/03/30 01:11:43;;;;;;;24.33;12.63;;;11.30;95.40;;;;;;4939472;29;20287;-81
2021/03/30 01:14:44;;;;;;;20.43;11.07;;;11.30;95.60;;;;;;4942936;29;20231;-83
2021/03/30 01:17:37;;;;;;;23.70;12.87;;;11.20;95.80;;;;;;4936174;29;20244;-82
2021/03/30 01:20:55;;;;;;;24.77;12.13;;;11.10;96.10;;;;;;4940983;29;20666;-81
2021/03/30 01:24:05;;;;;;;26.17;13.30;;;11.10;96.30;;;;;;4931092;29;20211;-82
2021/03/30 01:26:56;;;;;;;26.73;13.40;;;11.00;96.80;;;;;;4940744;29;20611;-81
2021/03/30 01:29:47;;;;;;;22.73;12.20;;;10.90;97.20;;;;;;4925486;29;20343;-81
2021/03/30 01:32:36;;;;;;;24.30;12.67;;;10.90;97.50;;;;;;4930783;29;20227;-81
2021/03/30 01:35:24;;;;;;;25.20;13.17;;;10.90;97.80;;;;;;4936709;29;20228;-81
2021/03/30 01:38:13;;;;;;;28.00;14.30;;;10.80;97.90;;;;;;4934122;29;20304;-81
2021/03/30 01:40:59;;;;;;;24.07;12.27;;;10.80;98.10;;;;;;4933628;29;20659;-81
2021/03/30 01:43:47;;;;;;;27.37;14.00;;;10.70;98.30;;;;;;4925976;29;20215;-81
2021/03/30 01:46:34;;;;;;;23.53;12.53;;;10.70;98.30;;;;;;4937467;29;20219;-81
2021/03/30 01:49:21;;;;;;;23.80;13.63;;;10.70;98.40;;;;;;4932586;29;20225;-81
2021/03/30 01:52:08;;;;;;;23.27;12.13;;;10.70;98.70;;;;;;4940969;29;20231;-81
2021/03/30 01:54:54;;;;;;;22.93;12.83;;;10.60;98.90;;;;;;4936199;29;20243;-81
2021/03/30 01:57:40;;;;;;;30.93;13.83;;;10.60;99.20;;;;;;4947308;29;20208;-82
2021/03/30 02:00:33;;;;;;;24.10;12.67;;;10.50;99.40;;;;;;4938658;29;20207;-82
2021/03/30 02:03:20;;;;;;;26.90;13.23;;;10.50;99.60;;;;;;4933145;29;20234;-82
2021/03/30 02:06:07;;;;;;;26.43;13.87;;;10.50;99.90;;;;;;4934526;29;20632;-81
2021/03/30 02:08:56;;;;;;;29.80;14.43;;;10.40;99.90;;;;;;4939616;29;20231;-81
2021/03/30 02:11:44;;;;;;;30.27;14.13;;;10.40;99.90;;;;;;4935012;29;20739;-81
2021/03/30 02:14:29;;;;;;;27.27;13.97;;;10.30;99.90;;;;;;4935822;29;20208;-81
2021/03/30 02:17:21;;;;;;;28.93;13.67;;;10.30;99.90;;;;;;4932949;29;20215;-80
2021/03/30 02:20:14;;;;;;;28.17;14.27;;;10.30;99.90;;;;;;4932477;29;20218;-80
2021/03/30 02:23:03;;;;;;;26.70;13.43;;;10.20;99.90;;;;;;4933181;29;20332;-80
2021/03/30 02:25:50;;;;;;;30.27;13.80;;;10.20;99.90;;;;;;4932364;29;20223;-80
2021/03/30 02:28:43;;;;;;;24.80;13.63;;;10.20;99.90;;;;;;4933064;29;20224;-80
2021/03/30 02:31:31;;;;;;;28.73;14.60;;;10.10;99.90;;;;;;4934374;29;20276;-81
2021/03/30 02:34:18;;;;;;;29.53;13.53;;;10.10;99.90;;;;;;4938505;29;20207;-82
2021/03/30 02:37:05;;;;;;;27.83;15.70;;;10.00;99.90;;;;;;4936386;29;20227;-82
2021/03/30 02:39:52;;;;;;;26.27;13.37;;;10.00;99.90;;;;;;4930907;29;20222;-81
2021/03/30 02:42:39;;;;;;;26.67;14.93;;;9.90;99.90;;;;;;4932806;29;20226;-82
2021/03/30 02:45:27;;;;;;;28.07;13.00;;;9.90;99.90;;;;;;4935348;29;20743;-82
2021/03/30 02:48:15;;;;;;;27.27;13.60;;;9.90;99.90;;;;;;4932352;29;20259;-82
2021/03/30 02:51:03;;;;;;;26.10;14.67;;;9.70;99.90;;;;;;4934926;29;20331;-82
2021/03/30 02:53:51;;;;;;;31.63;14.53;;;9.80;99.90;;;;;;4930465;29;20605;-82
2021/03/30 02:56:36;;;;;;;24.93;13.30;;;9.80;99.90;;;;;;4938951;29;20247;-82
2021/03/30 02:59:22;;;;;;;28.07;14.23;;;9.80;99.90;;;;;;4926138;29;20256;-81
2021/03/30 03:02:07;;;;;;;31.13;15.27;;;9.80;99.90;;;;;;4926771;29;20247;-81
2021/03/30 03:04:53;;;;;;;31.30;15.73;;;9.70;99.90;;;;;;4928614;29;20203;-82
2021/03/30 03:07:39;;;;;;;29.13;14.63;;;9.70;99.90;;;;;;4932221;29;20204;-82
2021/03/30 03:10:25;;;;;;;27.90;13.90;;;9.70;99.90;;;;;;4930255;29;20235;-81
2021/03/30 03:13:14;;;;;;;31.63;14.60;;;9.70;99.90;;;;;;4937692;29;20210;-82
2021/03/30 03:15:59;;;;;;;28.60;14.97;;;9.70;99.90;;;;;;4933286;29;20204;-82
2021/03/30 03:18:45;;;;;;;27.67;14.43;;;9.60;99.90;;;;;;4925708;29;20254;-82
2021/03/30 03:21:30;;;;;;;27.47;14.83;;;9.60;99.90;;;;;;4940137;29;20227;-82
2021/03/30 03:24:16;;;;;;;31.10;14.57;;;9.50;99.90;;;;;;4933322;29;20328;-82
2021/03/30 03:27:04;;;;;;;26.57;13.90;;;9.40;99.90;;;;;;4932320;29;20215;-81
2021/03/30 03:29:49;;;;;;;31.70;14.23;;;9.40;99.90;;;;;;4930631;29;20280;-81
2021/03/30 03:32:34;;;;;;;25.93;14.50;;;9.40;99.90;;;;;;4933165;29;20231;-81
2021/03/30 03:35:19;;;;;;;32.87;15.33;;;9.20;99.90;;;;;;4932730;29;20222;-81
2021/03/30 03:38:05;;;;;;;31.57;15.67;;;9.20;99.90;;;;;;4925660;29;20282;-81
2021/03/30 03:40:49;;;;;;;29.93;15.13;;;9.10;99.90;;;;;;4923814;29;20287;-81
2021/03/30 03:43:35;;;;;;;31.77;15.83;;;9.00;99.90;;;;;;4922603;29;20243;-81
2021/03/30 03:46:20;;;;;;;32.53;15.67;;;9.00;99.90;;;;;;4931211;29;20210;-81
2021/03/30 03:49:06;;;;;;;30.83;16.20;;;8.90;99.90;;;;;;4931465;29;20215;-80
2021/03/30 03:51:55;;;;;;;29.00;15.20;;;8.90;99.90;;;;;;4926130;29;20227;-81
2021/03/30 03:54:42;;;;;;;33.87;15.27;;;8.90;99.90;;;;;;4929403;29;20205;-81
2021/03/30 03:57:31;;;;;;;29.70;14.67;;;8.80;99.90;;;;;;4927786;29;20215;-81
2021/03/30 04:00:19;;;;;;;25.27;14.10;;;8.80;99.90;;;;;;4929136;29;20206;-80
2021/03/30 04:03:09;;;;;;;30.77;15.10;;;8.80;99.90;;;;;;4922967;29;20217;-81
2021/03/30 04:06:10;;;;;;;30.07;15.90;;;8.80;99.90;;;;;;4933192;29;20274;-80
2021/03/30 04:08:59;;;;;;;31.03;14.77;;;8.80;99.90;;;;;;4927324;29;20207;-80
2021/03/30 04:11:47;;;;;;;27.73;15.50;;;8.70;99.90;;;;;;4932628;29;20222;-80
2021/03/30 04:14:34;;;;;;;29.40;16.00;;;8.70;99.90;;;;;;4934632;29;20210;-80
2021/03/30 04:17:20;;;;;;;32.07;17.00;;;8.70;99.90;;;;;;4924131;29;20211;-80
2021/03/30 04:20:09;;;;;;;35.13;14.43;;;8.60;99.90;;;;;;4924613;29;20230;-80
2021/03/30 04:22:57;;;;;;;31.23;15.20;;;8.60;99.90;;;;;;4930156;29;20235;-80
2021/03/30 04:25:41;;;;;;;34.57;15.23;;;8.50;99.90;;;;;;4937604;29;20222;-80
2021/03/30 04:28:26;;;;;;;31.20;15.80;;;8.50;99.90;;;;;;4938091;29;20223;-81
2021/03/30 04:31:11;;;;;;;33.90;17.40;;;8.50;99.90;;;;;;4940884;29;20222;-81
2021/03/30 04:33:57;;;;;;;30.70;16.40;;;8.50;99.90;;;;;;4931281;29;20211;-80
2021/03/30 04:36:41;;;;;;;34.27;16.57;;;8.40;99.90;;;;;;4924535;29;20287;-80
2021/03/30 04:39:26;;;;;;;35.47;16.77;;;8.40;99.90;;;;;;4919074;29;20272;-81
2021/03/30 04:42:11;;;;;;;31.33;15.93;;;8.40;99.90;;;;;;4929092;29;20275;-80
2021/03/30 04:44:56;;;;;;;30.50;15.93;;;8.30;99.90;;;;;;4926357;29;20243;-81
2021/03/30 04:47:41;;;;;;;30.87;15.83;;;8.30;99.90;;;;;;4925281;29;20275;-81
2021/03/30 04:50:27;;;;;;;31.93;15.37;;;8.30;99.90;;;;;;4935756;29;20695;-80
2021/03/30 04:53:12;;;;;;;24.67;13.90;;;8.20;99.90;;;;;;4926249;29;20271;-81
2021/03/30 04:55:57;;;;;;;30.93;15.13;;;8.20;99.90;;;;;;4921865;29;20219;-81
2021/03/30 04:58:41;;;;;;;34.33;16.40;;;8.30;99.90;;;;;;4946076;29;20243;-82
2021/03/30 05:01:26;;;;;;;31.27;15.53;;;8.10;99.90;;;;;;4943421;29;20227;-81
2021/03/30 05:04:11;;;;;;;32.83;16.97;;;8.00;99.90;;;;;;4937128;29;20283;-81
2021/03/30 05:06:56;;;;;;;31.27;16.83;;;7.90;99.90;;;;;;4934236;29;20227;-81
2021/03/30 05:09:42;;;;;;;31.47;16.47;;;7.90;99.90;;;;;;4928069;29;20204;-81
2021/03/30 05:12:26;;;;;;;30.43;15.33;;;7.80;99.90;;;;;;4931037;29;20235;-80
2021/03/30 05:15:12;;;;;;;30.50;15.87;;;7.70;99.90;;;;;;4936985;29;20214;-81
2021/03/30 05:17:58;;;;;;;29.30;14.47;;;7.60;99.90;;;;;;4932889;29;20202;-81
2021/03/30 05:20:43;;;;;;;32.87;16.53;;;7.60;99.90;;;;;;4938860;29;20207;-81
2021/03/30 05:23:28;;;;;;;31.10;16.53;;;7.50;99.90;;;;;;4935749;29;20271;-82
2021/03/30 05:26:13;;;;;;;33.00;16.40;;;7.50;99.90;;;;;;4937973;29;20767;-81
2021/03/30 05:28:58;;;;;;;36.47;16.77;;;7.40;99.90;;;;;;4934520;29;20228;-86
2021/03/30 05:31:42;;;;;;;37.67;16.50;;;7.40;99.90;;;;;;4945868;29;20247;-86
2021/03/30 05:34:27;;;;;;;33.10;16.63;;;7.30;99.90;;;;;;4939488;29;20300;-83
2021/03/30 05:37:12;;;;;;;34.00;16.30;;;7.30;99.90;;;;;;4945443;29;20215;-83
2021/03/30 05:39:58;;;;;;;29.57;15.80;;;7.20;99.90;;;;;;4945730;29;20233;-85
2021/03/30 05:46:31;;;;;;;34.10;16.00;;;7.20;99.90;;;;;;4948307;29;20222;-81
2021/03/30 05:49:16;;;;;;;34.73;16.13;;;7.10;99.90;;;;;;4942809;29;20578;-82
2021/03/30 05:52:02;;;;;;;35.30;17.33;;;7.00;99.90;;;;;;4943486;29;20254;-81
2021/03/30 05:54:48;;;;;;;32.03;15.23;;;6.90;99.90;;;;;;4942169;29;20218;-81
2021/03/30 05:57:35;;;;;;;35.97;17.23;;;6.90;99.90;;;;;;4941383;29;20211;-82
2021/03/30 06:00:22;;;;;;;32.70;16.93;;;6.80;99.90;;;;;;4947192;29;20635;-86
2021/03/30 06:03:09;;;;;;;42.13;17.60;;;6.80;99.90;;;;;;4934034;29;20257;-81
2021/03/30 06:05:55;;;;;;;33.30;16.43;;;6.80;99.90;;;;;;4942990;29;20246;-83
2021/03/30 06:08:43;;;;;;;38.20;17.40;;;6.70;99.90;;;;;;4945930;29;20206;-85
2021/03/30 06:11:28;;;;;;;40.07;17.60;;;6.60;99.90;;;;;;4959818;29;20233;-83
2021/03/30 06:14:14;;;;;;;38.57;17.03;;;6.60;99.90;;;;;;4946409;29;20706;-82
2021/03/30 06:16:58;;;;;;;38.17;16.77;;;6.60;99.90;;;;;;4948484;29;20351;-86
2021/03/30 06:20:01;;;;;;;44.07;18.03;;;6.60;99.90;;;;;;4947790;29;20222;-85
2021/03/30 06:22:51;;;;;;;46.60;20.07;;;6.60;99.90;;;;;;4950122;29;20226;-83
2021/03/30 06:25:38;;;;;;;47.53;19.40;;;6.60;99.90;;;;;;4953678;29;20218;-82
2021/03/30 06:28:25;;;;;;;44.20;19.37;;;6.60;99.90;;;;;;4937547;29;20243;-83
2021/03/30 06:31:14;;;;;;;46.80;20.93;;;6.60;99.90;;;;;;4953227;29;20259;-82
2021/03/30 06:34:00;;;;;;;46.17;20.37;;;6.60;99.90;;;;;;4942793;29;22226;-80
2021/03/30 06:36:45;;;;;;;44.43;20.20;;;6.60;99.90;;;;;;4938565;29;20209;-82
2021/03/30 06:39:34;;;;;;;45.20;21.67;;;6.70;99.90;;;;;;4933324;29;20702;-80
2021/03/30 06:42:28;;;;;;;46.70;20.30;;;6.70;99.90;;;;;;4936903;29;20312;-82
2021/03/30 06:45:16;;;;;;;46.57;22.10;;;6.80;99.90;;;;;;4934846;29;20759;-82
2021/03/30 06:48:04;;;;;;;44.90;21.23;;;6.80;99.90;;;;;;4927702;29;20227;-81
2021/03/30 06:50:49;;;;;;;44.67;21.47;;;6.80;99.90;;;;;;4927203;29;20312;-81
2021/03/30 06:53:34;;;;;;;45.53;22.17;;;6.90;99.90;;;;;;4940133;29;20242;-81
2021/03/30 06:56:18;;;;;;;42.47;21.70;;;7.00;99.90;;;;;;4939817;29;20996;-80
2021/03/30 06:59:03;;;;;;;44.30;21.40;;;7.10;99.90;;;;;;4935510;29;20238;-80
2021/03/30 07:01:50;;;;;;;43.80;19.37;;;7.20;99.90;;;;;;4934926;29;20324;-80
2021/03/30 07:04:53;;;;;;;41.63;21.17;;;7.30;99.90;;;;;;4937462;29;20207;-81
2021/03/30 07:07:38;;;;;;;45.60;21.23;;;7.40;99.90;;;;;;4936245;29;20232;-80
2021/03/30 07:10:25;;;;;;;40.93;21.57;;;7.40;99.90;;;;;;4934018;29;20218;-82
2021/03/30 07:13:12;;;;;;;40.37;20.23;;;7.50;99.90;;;;;;4939842;29;20232;-81
2021/03/30 07:16:02;;;;;;;39.63;20.53;;;7.60;99.90;;;;;;4931616;29;20262;-81
2021/03/30 07:18:49;;;;;;;42.43;21.17;;;7.70;99.90;;;;;;4939318;29;20231;-80
2021/03/30 07:21:47;;;;;;;42.40;21.90;;;7.80;99.90;;;;;;4938854;29;20239;-80
2021/03/30 07:24:39;;;;;;;42.83;22.63;;;7.90;99.90;;;;;;4936607;29;20215;-81
2021/03/30 07:27:29;;;;;;;41.93;21.30;;;8.00;99.90;;;;;;4931676;29;20247;-81
2021/03/30 07:30:16;;;;;;;43.77;21.77;;;8.10;99.90;;;;;;4943070;29;20215;-82
2021/03/30 07:33:21;;;;;;;39.40;21.03;;;8.20;99.90;;;;;;4933493;29;20215;-83
2021/03/30 07:36:10;;;;;;;41.50;22.03;;;8.40;99.90;;;;;;4938386;29;20619;-82
2021/03/30 07:39:02;;;;;;;39.50;20.70;;;8.60;99.90;;;;;;4939639;29;20287;-81
2021/03/30 07:41:48;;;;;;;42.97;23.47;;;8.90;99.90;;;;;;4936326;29;20637;-81
2021/03/30 07:44:33;;;;;;;39.43;20.63;;;8.90;99.90;;;;;;4938686;29;20223;-81
2021/03/30 07:47:19;;;;;;;41.80;22.47;;;9.10;99.90;;;;;;4939275;29;20207;-82
2021/03/30 07:50:06;;;;;;;41.67;22.53;;;9.40;99.90;;;;;;4933840;29;20219;-81
2021/03/30 07:52:52;;;;;;;40.00;20.40;;;9.60;99.90;;;;;;4934772;29;20263;-83
2021/03/30 07:55:40;;;;;;;37.93;20.53;;;9.70;99.90;;;;;;4941972;29;20215;-82
2021/03/30 07:58:36;;;;;;;43.20;22.03;;;10.00;99.90;;;;;;4942816;29;20279;-85
2021/03/30 08:01:23;;;;;;;37.80;22.03;;;10.20;99.90;;;;;;4941977;29;20231;-81
2021/03/30 08:04:08;;;;;;;40.23;20.30;;;10.40;99.90;;;;;;4941974;29;20218;-82
2021/03/30 08:06:53;;;;;;;39.10;20.67;;;10.60;99.90;;;;;;4937671;29;20628;-83
2021/03/30 08:09:38;;;;;;;37.87;20.23;;;10.80;99.90;;;;;;4943862;29;20275;-82
2021/03/30 08:12:24;;;;;;;39.57;21.87;;;11.00;99.90;;;;;;4943705;29;20226;-81
2021/03/30 08:15:43;;;;;;;40.23;22.83;;;11.20;99.90;;;;;;4942605;29;20214;-82
2021/03/30 08:18:30;;;;;;;38.00;20.07;;;11.40;99.90;;;;;;4932375;29;20269;-85
2021/03/30 08:21:16;;;;;;;40.57;20.03;;;11.60;99.90;;;;;;4937677;29;20243;-83
2021/03/30 08:24:11;;;;;;;41.33;21.90;;;11.80;99.90;;;;;;4947324;29;20231;-82
2021/03/30 08:26:56;;;;;;;40.37;19.13;;;12.00;99.90;;;;;;4946339;29;20300;-81
2021/03/30 08:29:42;;;;;;;37.47;20.10;;;12.20;99.90;;;;;;4942594;29;20225;-82
2021/03/30 08:32:28;;;;;;;38.60;19.83;;;12.40;99.90;;;;;;4938074;29;20586;-81
2021/03/30 08:35:32;;;;;;;37.87;19.77;;;12.60;99.90;;;;;;4936567;29;20255;-81
2021/03/30 08:38:42;;;;;;;37.70;19.00;;;12.80;99.90;;;;;;4936536;29;20264;-82
2021/03/30 08:41:50;;;;;;;34.63;18.67;;;13.10;99.90;;;;;;4946611;29;20305;-82
2021/03/30 08:44:50;;;;;;;37.67;20.87;;;13.40;99.90;;;;;;4936374;29;20231;-82
2021/03/30 08:47:38;;;;;;;34.40;20.40;;;13.60;99.90;;;;;;4943435;29;20221;-82
2021/03/30 08:50:25;;;;;;;36.80;20.47;;;13.80;99.90;;;;;;4937610;29;20218;-82
2021/03/30 08:53:19;;;;;;;38.20;20.40;;;14.00;99.90;;;;;;4941308;29;20544;-81
2021/03/30 08:56:10;;;;;;;40.73;21.67;;;14.20;99.90;;;;;;4941815;29;20218;-83
2021/03/30 08:58:58;;;;;;;39.20;22.37;;;14.40;99.90;;;;;;4942270;29;20228;-82
2021/03/30 09:01:44;;;;;;;40.53;21.90;;;14.60;99.90;;;;;;4936732;29;20322;-82
2021/03/30 09:04:38;;;;;;;41.30;22.53;;;14.70;99.90;;;;;;4939084;29;20212;-81
2021/03/30 09:07:23;;;;;;;39.47;21.90;;;14.90;99.90;;;;;;4939003;29;20232;-81
2021/03/30 09:10:10;;;;;;;40.23;21.67;;;15.00;99.90;;;;;;4931016;29;20213;-80
2021/03/30 09:13:10;;;;;;;38.33;21.33;;;15.20;99.90;;;;;;4930155;29;20212;-80
2021/03/30 09:16:07;;;;;;;38.50;18.43;;;15.20;99.90;;;;;;4929110;29;20267;-81
2021/03/30 09:19:16;;;;;;;37.03;21.37;;;15.40;99.90;;;;;;4937555;29;20229;-82
2021/03/30 09:22:06;;;;;;;41.27;22.00;;;15.60;99.90;;;;;;4942648;29;20235;-82
2021/03/30 09:25:02;;;;;;;38.90;22.57;;;15.80;99.90;;;;;;4941631;29;20692;-82
2021/03/30 09:27:48;;;;;;;38.50;21.90;;;16.00;99.90;;;;;;4940742;29;20207;-82
2021/03/30 09:30:36;;;;;;;37.93;21.90;;;16.40;99.90;;;;;;4943736;29;20238;-84
2021/03/30 09:33:21;;;;;;;38.47;22.43;;;16.90;99.90;;;;;;4939757;29;20207;-85
2021/03/30 09:36:12;;;;;;;34.93;21.50;;;17.50;99.90;;;;;;4942550;29;20206;-81
2021/03/30 09:38:57;;;;;;;40.30;23.63;;;18.20;99.90;;;;;;4942846;29;20228;-83
2021/03/30 09:41:44;;;;;;;32.83;22.23;;;18.90;99.90;;;;;;4936854;29;20266;-82
2021/03/30 09:44:35;;;;;;;38.97;24.30;;;19.70;99.90;;;;;;4939099;29;20220;-85
2021/03/30 09:47:21;;;;;;;40.03;22.53;;;20.60;97.10;;;;;;4937776;29;20230;-81
2021/03/30 09:50:07;;;;;;;38.27;22.63;;;21.50;98.30;;;;;;4941964;29;20257;-82
2021/03/30 09:52:53;;;;;;;38.63;24.13;;;22.40;95.00;;;;;;4941156;29;20227;-81
2021/03/30 09:55:43;;;;;;;35.40;24.17;;;23.20;92.00;;;;;;4936919;29;20231;-82
2021/03/30 09:58:30;;;;;;;41.60;25.90;;;24.00;90.00;;;;;;4941359;29;20220;-82
2021/03/30 10:01:16;;;;;;;34.40;24.00;;;24.80;87.90;;;;;;4945484;29;20294;-83
2021/03/30 10:04:01;;;;;;;39.07;24.83;;;25.50;81.40;;;;;;4939198;29;20225;-82
2021/03/30 10:06:46;;;;;;;42.25;24.10;;;26.30;76.30;;;;;;4937650;29;20226;-81
2021/03/30 10:09:31;;;;;;;35.65;22.90;;;27.00;72.80;;;;;;4931096;29;20680;-82
2021/03/30 10:12:27;;;;;;;35.80;24.77;;;27.60;71.70;;;;;;4931462;29;20233;-81
2021/03/30 10:15:12;;;;;;;34.28;22.63;;;28.30;67.90;;;;;;4933267;29;20207;-83
2021/03/30 10:17:58;;;;;;;39.17;25.98;;;28.90;65.10;;;;;;4931949;29;20322;-81
2021/03/30 10:20:45;;;;;;;34.45;24.17;;;29.40;58.60;;;;;;4930068;29;20235;-81
2021/03/30 10:23:33;;;;;;;34.72;24.00;;;30.00;59.50;;;;;;4938687;29;20229;-84
2021/03/30 10:26:25;;;;;;;35.30;24.90;;;30.50;56.90;;;;;;4939130;29;20251;-82
2021/03/30 10:29:17;;;;;;;33.75;25.02;;;31.00;57.00;;;;;;4938983;29;20244;-83
2021/03/30 10:32:08;;;;;;;33.38;26.25;;;31.60;54.10;;;;;;4939772;29;20478;-81
2021/03/30 10:34:53;;;;;;;31.58;23.33;;;32.10;51.30;;;;;;4930877;29;20286;-81
2021/03/30 10:37:38;;;;;;;33.60;26.38;;;32.50;52.40;;;;;;4929541;29;20215;-82
2021/03/30 10:40:30;;;;;;;33.33;24.60;;;33.00;50.00;;;;;;4923624;29;20219;-81
2021/03/30 10:43:20;;;;;;;30.35;23.48;;;33.30;49.00;;;;;;4928770;29;20629;-80
2021/03/30 10:46:21;;;;;;;24.75;18.30;;;33.60;48.30;;;;;;4938910;29;20212;-85
2021/03/30 10:49:07;;;;;;;23.95;19.48;;;34.10;50.30;;;;;;4938616;29;20252;-83
2021/03/30 10:51:52;;;;;;;21.33;16.88;;;34.40;45.90;;;;;;4934198;29;20230;-82
2021/03/30 10:54:38;;;;;;;23.15;17.90;;;34.80;43.80;;;;;;4935541;29;20287;-84
2021/03/30 10:57:25;;;;;;;19.25;14.30;;;35.10;42.00;;;;;;4938034;29;20729;-85
2021/03/30 11:00:14;;;;;;;23.60;15.05;;;35.30;42.10;;;;;;4943467;29;20268;-87
2021/03/30 11:02:59;;;;;;;20.40;16.20;;;35.60;41.80;;;;;;4953005;29;20204;-87
2021/03/30 11:05:44;;;;;;;21.90;15.75;;;35.80;43.50;;;;;;4948771;29;20219;-86
2021/03/30 11:08:29;;;;;;;21.95;16.55;;;36.10;42.20;;;;;;4943861;29;20211;-84
2021/03/30 11:11:13;;;;;;;20.50;14.70;;;36.50;43.80;;;;;;4936806;29;20222;-85
2021/03/30 11:13:58;;;;;;;21.20;16.35;;;36.80;43.50;;;;;;4940718;29;20232;-85
2021/03/30 11:16:44;;;;;;;23.52;16.60;;;37.20;42.50;;;;;;4937740;29;20280;-86
2021/03/30 11:19:29;;;;;;;22.70;17.50;;;37.50;41.10;;;;;;4946097;29;20206;-86
2021/03/30 11:22:14;;;;;;;22.45;17.88;;;37.90;40.30;;;;;;4939511;29;20234;-86
2021/03/30 11:25:01;;;;;;;21.08;17.13;;;38.20;42.50;;;;;;4945789;29;20234;-86
2021/03/30 11:27:49;;;;;;;21.50;17.20;;;38.50;40.50;;;;;;4945026;29;20213;-85
2021/03/30 11:30:37;;;;;;;22.77;17.10;;;38.80;40.10;;;;;;4945561;29;20223;-85
2021/03/30 11:33:25;;;;;;;21.95;16.83;;;39.00;39.70;;;;;;4936766;29;20281;-86
2021/03/30 11:36:14;;;;;;;21.15;16.67;;;39.20;41.40;;;;;;4937877;29;20219;-87
2021/03/30 11:38:59;;;;;;;22.77;17.75;;;39.50;40.30;;;;;;4934188;29;20226;-83
2021/03/30 11:41:44;;;;;;;22.95;17.77;;;39.70;37.60;;;;;;4939672;29;20275;-83
2021/03/30 11:44:29;;;;;;;23.27;18.17;;;40.00;36.70;;;;;;4943079;29;20208;-85
2021/03/30 11:47:14;;;;;;;22.48;18.35;;;40.20;34.20;;;;;;4941423;29;20206;-86
2021/03/30 11:50:00;;;;;;;19.33;16.13;;;40.50;34.80;;;;;;4935824;29;20251;-86
2021/03/30 11:52:45;;;;;;;21.45;16.33;;;40.70;37.80;;;;;;4943115;29;20282;-85
2021/03/30 11:55:30;;;;;;;20.05;16.08;;;40.80;35.80;;;;;;4943819;29;20228;-83
2021/03/30 11:58:15;;;;;;;23.10;18.27;;;41.00;36.90;;;;;;4932103;29;20298;-85
2021/03/30 12:01:00;;;;;;;20.65;17.85;;;41.10;34.30;;;;;;4944528;29;20230;-86
2021/03/30 12:03:45;;;;;;;23.55;18.15;;;41.30;37.40;;;;;;4946099;29;20206;-85
2021/03/30 12:06:30;;;;;;;21.80;19.13;;;41.40;34.80;;;;;;4945869;29;20234;-85
2021/03/30 12:09:15;;;;;;;23.35;18.85;;;41.50;33.50;;;;;;4943997;29;20259;-86
2021/03/30 12:12:00;;;;;;;23.02;17.42;;;41.60;33.90;;;;;;4944091;29;20237;-86
2021/03/30 12:14:45;;;;;;;20.80;17.80;;;41.60;34.60;;;;;;4942992;29;20238;-85
2021/03/30 12:17:30;;;;;;;22.27;18.45;;;41.50;35.60;;;;;;4947645;29;20239;-87
2021/03/30 12:20:16;;;;;;;22.58;16.48;;;41.40;35.30;;;;;;4950369;29;20228;-85
2021/03/30 12:23:02;;;;;;;21.17;17.30;;;41.50;36.20;;;;;;4945806;29;20210;-86
2021/03/30 12:25:47;;;;;;;23.88;17.30;;;41.50;35.90;;;;;;4948833;29;20232;-85
2021/03/30 12:28:32;;;;;;;24.92;18.33;;;41.70;36.90;;;;;;4948313;29;20211;-84
2021/03/30 12:31:17;;;;;;;19.45;16.58;;;41.80;34.50;;;;;;4948487;29;20218;-84
2021/03/30 12:34:02;;;;;;;19.30;15.30;;;42.10;34.80;;;;;;4944499;29;20218;-85
2021/03/30 12:36:47;;;;;;;18.80;15.70;;;42.20;35.50;;;;;;4942434;29;20203;-85
2021/03/30 12:39:33;;;;;;;18.25;14.45;;;42.40;36.00;;;;;;4949476;29;20222;-85
2021/03/30 12:42:18;;;;;;;23.15;15.23;;;42.60;33.20;;;;;;4949384;29;20230;-84
2021/03/30 12:45:03;;;;;;;19.88;14.15;;;42.70;33.10;;;;;;4946666;29;20210;-88
2021/03/30 12:47:48;;;;;;;17.77;13.85;;;42.90;36.80;;;;;;4942914;29;20255;-88
2021/03/30 12:50:35;;;;;;;20.63;15.43;;;43.00;37.70;;;;;;4954759;29;20229;-86
2021/03/30 12:53:20;;;;;;;19.77;15.43;;;43.10;33.20;;;;;;4955806;29;20215;-87
2021/03/30 12:56:06;;;;;;;18.08;13.75;;;43.20;34.40;;;;;;4943999;29;20214;-86
2021/03/30 12:58:51;;;;;;;18.17;14.27;;;43.20;35.60;;;;;;4941191;29;20702;-87
2021/03/30 13:01:36;;;;;;;18.17;14.85;;;43.60;38.10;;;;;;4937957;29;20239;-86
2021/03/30 13:04:21;;;;;;;18.23;14.77;;;43.70;34.20;;;;;;4947239;29;20231;-86
2021/03/30 13:07:06;;;;;;;18.35;13.45;;;43.80;30.80;;;;;;4945928;29;20215;-86
2021/03/30 13:09:52;;;;;;;20.17;14.70;;;44.00;32.00;;;;;;4949575;29;20227;-86
2021/03/30 13:12:37;;;;;;;16.38;13.23;;;44.00;31.10;;;;;;4948186;29;20271;-87
2021/03/30 13:15:23;;;;;;;15.85;12.98;;;44.00;32.10;;;;;;4946090;29;20211;-89
2021/03/30 13:18:08;;;;;;;18.05;15.73;;;43.80;31.70;;;;;;4945050;29;20356;-88
2021/03/30 13:20:53;;;;;;;19.80;15.55;;;43.70;30.20;;;;;;4950168;29;20223;-87
2021/03/30 13:23:38;;;;;;;17.83;12.00;;;43.40;29.40;;;;;;4945613;29;20210;-88
2021/03/30 13:26:24;;;;;;;17.30;12.65;;;43.20;31.40;;;;;;4945399;29;20267;-85
2021/03/30 13:29:11;;;;;;;15.55;12.32;;;42.90;29.30;;;;;;4950209;29;20755;-88
2021/03/30 13:31:56;;;;;;;17.10;12.90;;;42.80;29.40;;;;;;4977215;23;20322;-86
2021/03/30 13:34:49;;;;;;;13.70;10.88;;;42.70;32.70;;;;;;4946702;29;20230;-87
2021/03/30 13:37:37;;;;;;;15.05;10.75;;;42.50;29.70;;;;;;4942046;29;20669;-86
2021/03/30 13:40:32;;;;;;;13.98;11.30;;;42.50;29.90;;;;;;4942824;29;20194;-86
2021/03/30 13:46:00;;;;;;;16.40;12.15;;;42.30;31.30;;;;;;4973905;28;20282;-85
2021/03/30 13:48:45;;;;;;;17.23;13.00;;;42.10;29.50;;;;;;4967353;28;20282;-86
2021/03/30 13:51:30;;;;;;;14.65;12.15;;;42.10;29.90;;;;;;4968829;28;20229;-84
2021/03/30 13:54:16;;;;;;;19.40;14.05;;;41.90;31.20;;;;;;4969875;28;20219;-86
2021/03/30 13:57:02;;;;;;;16.15;12.23;;;41.90;30.80;;;;;;4970177;28;20218;-88
2021/03/30 13:59:48;;;;;;;18.10;13.15;;;41.90;32.80;;;;;;4972119;28;20624;-87
2021/03/30 14:02:34;;;;;;;17.58;11.85;;;42.00;31.10;;;;;;4967564;28;20251;-87
2021/03/30 14:05:19;;;;;;;16.15;11.93;;;41.80;32.30;;;;;;4969811;28;20230;-87
2021/03/30 14:08:08;;;;;;;14.75;11.05;;;41.80;32.10;;;;;;4971990;28;20226;-88
2021/03/30 14:10:53;;;;;;;15.68;11.68;;;41.90;31.50;;;;;;4968046;28;20229;-85
2021/03/30 14:13:41;;;;;;;15.50;12.30;;;41.90;30.20;;;;;;4970501;28;20562;-87
2021/03/30 14:16:33;;;;;;;17.08;11.68;;;42.10;28.50;;;;;;4967183;28;20215;-87
2021/03/30 14:19:20;;;;;;;16.38;13.02;;;42.10;32.30;;;;;;4964494;28;20219;-87
2021/03/30 14:22:07;;;;;;;15.57;11.10;;;42.10;30.70;;;;;;4968083;28;20291;-87